sensor_id;sensor_type;location;lat;lon;timestamp;P1;durP1;ratioP1;P2;durP2;ratioP2
23290;SDS011;11814;44.686;10.842;2023-05-07T00:00:00;18.92;;;15.60;;
23290;SDS011;11814;44.686;10.842;2023-05-07T00:02:26;17.75;;;15.63;;
23290;SDS011;11814;44.686;10.842;2023-05-07T00:04:51;18.23;;;15.77;;
23290;SDS011;11814;44.686;10.842;2023-05-07T00:07:17;20.90;;;16.55;;
23290;SDS011;11814;44.686;10.842;2023-05-07T00:09:43;24.17;;;16.60;;
23290;SDS011;11814;44.686;10.842;2023-05-07T00:12:09;22.20;;;16.30;;
23290;SDS011;11814;44.686;10.842;2023-05-07T00:14:35;22.23;;;17.02;;
23290;SDS011;11814;44.686;10.842;2023-05-07T00:17:01;20.70;;;17.13;;
23290;SDS011;11814;44.686;10.842;2023-05-07T00:19:27;20.13;;;17.67;;
23290;SDS011;11814;44.686;10.842;2023-05-07T00:21:52;20.77;;;16.70;;
23290;SDS011;11814;44.686;10.842;2023-05-07T00:24:22;20.63;;;15.85;;
23290;SDS011;11814;44.686;10.842;2023-05-07T00:26:47;18.85;;;16.83;;
23290;SDS011;11814;44.686;10.842;2023-05-07T00:29:13;22.52;;;18.10;;
23290;SDS011;11814;44.686;10.842;2023-05-07T00:31:39;20.15;;;16.20;;
23290;SDS011;11814;44.686;10.842;2023-05-07T00:34:04;18.23;;;16.05;;
23290;SDS011;11814;44.686;10.842;2023-05-07T00:36:30;17.67;;;15.05;;
23290;SDS011;11814;44.686;10.842;2023-05-07T00:38:57;17.48;;;15.45;;
23290;SDS011;11814;44.686;10.842;2023-05-07T00:41:25;17.92;;;16.10;;
23290;SDS011;11814;44.686;10.842;2023-05-07T00:43:51;18.58;;;16.27;;
23290;SDS011;11814;44.686;10.842;2023-05-07T00:46:17;23.00;;;18.85;;
23290;SDS011;11814;44.686;10.842;2023-05-07T00:48:45;21.80;;;18.73;;
23290;SDS011;11814;44.686;10.842;2023-05-07T00:51:12;22.67;;;19.00;;
23290;SDS011;11814;44.686;10.842;2023-05-07T00:53:38;22.42;;;18.10;;
23290;SDS011;11814;44.686;10.842;2023-05-07T00:56:04;21.17;;;17.67;;
23290;SDS011;11814;44.686;10.842;2023-05-07T00:58:31;24.10;;;19.80;;
23290;SDS011;11814;44.686;10.842;2023-05-07T01:00:58;21.02;;;18.55;;
23290;SDS011;11814;44.686;10.842;2023-05-07T01:03:24;22.98;;;18.85;;
23290;SDS011;11814;44.686;10.842;2023-05-07T01:05:50;20.75;;;18.55;;
23290;SDS011;11814;44.686;10.842;2023-05-07T01:08:18;23.00;;;19.90;;
23290;SDS011;11814;44.686;10.842;2023-05-07T01:10:45;25.75;;;21.75;;
23290;SDS011;11814;44.686;10.842;2023-05-07T01:13:11;22.85;;;20.50;;
23290;SDS011;11814;44.686;10.842;2023-05-07T01:15:38;25.98;;;22.05;;
23290;SDS011;11814;44.686;10.842;2023-05-07T01:18:06;23.27;;;20.13;;
23290;SDS011;11814;44.686;10.842;2023-05-07T01:20:32;24.85;;;19.92;;
23290;SDS011;11814;44.686;10.842;2023-05-07T01:22:57;24.73;;;21.27;;
23290;SDS011;11814;44.686;10.842;2023-05-07T01:25:25;24.90;;;21.10;;
23290;SDS011;11814;44.686;10.842;2023-05-07T01:27:51;26.23;;;21.27;;
23290;SDS011;11814;44.686;10.842;2023-05-07T01:30:17;28.95;;;23.73;;
23290;SDS011;11814;44.686;10.842;2023-05-07T01:33:02;25.52;;;21.92;;
23290;SDS011;11814;44.686;10.842;2023-05-07T01:35:32;26.92;;;23.60;;
23290;SDS011;11814;44.686;10.842;2023-05-07T01:38:03;26.40;;;22.30;;
23290;SDS011;11814;44.686;10.842;2023-05-07T01:40:31;29.10;;;23.67;;
23290;SDS011;11814;44.686;10.842;2023-05-07T01:42:56;26.25;;;22.50;;
23290;SDS011;11814;44.686;10.842;2023-05-07T01:45:22;25.45;;;22.75;;
23290;SDS011;11814;44.686;10.842;2023-05-07T01:47:49;29.65;;;22.98;;
23290;SDS011;11814;44.686;10.842;2023-05-07T01:50:15;27.13;;;22.23;;
23290;SDS011;11814;44.686;10.842;2023-05-07T01:52:43;27.50;;;23.02;;
23290;SDS011;11814;44.686;10.842;2023-05-07T01:55:09;26.40;;;23.50;;
23290;SDS011;11814;44.686;10.842;2023-05-07T01:57:35;26.52;;;22.67;;
23290;SDS011;11814;44.686;10.842;2023-05-07T02:00:01;24.80;;;22.20;;
23290;SDS011;11814;44.686;10.842;2023-05-07T02:02:30;27.23;;;23.55;;
23290;SDS011;11814;44.686;10.842;2023-05-07T02:04:56;27.63;;;24.50;;
23290;SDS011;11814;44.686;10.842;2023-05-07T02:07:22;31.23;;;25.02;;
23290;SDS011;11814;44.686;10.842;2023-05-07T02:09:47;25.05;;;21.33;;
23290;SDS011;11814;44.686;10.842;2023-05-07T02:12:13;28.90;;;21.83;;
23290;SDS011;11814;44.686;10.842;2023-05-07T02:14:39;26.75;;;21.73;;
23290;SDS011;11814;44.686;10.842;2023-05-07T02:17:05;25.33;;;22.48;;
23290;SDS011;11814;44.686;10.842;2023-05-07T02:19:30;24.55;;;21.95;;
23290;SDS011;11814;44.686;10.842;2023-05-07T02:21:56;25.38;;;21.67;;
23290;SDS011;11814;44.686;10.842;2023-05-07T02:24:22;25.02;;;20.08;;
23290;SDS011;11814;44.686;10.842;2023-05-07T02:26:48;25.60;;;20.25;;
23290;SDS011;11814;44.686;10.842;2023-05-07T02:29:13;24.83;;;20.67;;
23290;SDS011;11814;44.686;10.842;2023-05-07T02:31:39;23.58;;;20.40;;
23290;SDS011;11814;44.686;10.842;2023-05-07T02:34:05;26.63;;;20.85;;
23290;SDS011;11814;44.686;10.842;2023-05-07T02:36:31;27.60;;;22.08;;
23290;SDS011;11814;44.686;10.842;2023-05-07T02:38:56;24.02;;;21.30;;
23290;SDS011;11814;44.686;10.842;2023-05-07T02:41:22;25.55;;;22.77;;
23290;SDS011;11814;44.686;10.842;2023-05-07T02:43:48;26.88;;;22.50;;
23290;SDS011;11814;44.686;10.842;2023-05-07T02:46:14;29.38;;;24.27;;
23290;SDS011;11814;44.686;10.842;2023-05-07T02:48:40;27.20;;;23.77;;
23290;SDS011;11814;44.686;10.842;2023-05-07T02:51:06;25.95;;;22.95;;
23290;SDS011;11814;44.686;10.842;2023-05-07T02:53:32;26.30;;;23.52;;
23290;SDS011;11814;44.686;10.842;2023-05-07T02:55:58;26.25;;;22.35;;
23290;SDS011;11814;44.686;10.842;2023-05-07T02:58:25;29.92;;;23.60;;
23290;SDS011;11814;44.686;10.842;2023-05-07T03:00:51;29.05;;;23.52;;
23290;SDS011;11814;44.686;10.842;2023-05-07T03:03:17;28.02;;;24.85;;
23290;SDS011;11814;44.686;10.842;2023-05-07T03:05:42;32.80;;;25.52;;
23290;SDS011;11814;44.686;10.842;2023-05-07T03:08:08;32.53;;;25.27;;
23290;SDS011;11814;44.686;10.842;2023-05-07T03:10:35;29.73;;;25.55;;
23290;SDS011;11814;44.686;10.842;2023-05-07T03:13:01;29.83;;;23.80;;
23290;SDS011;11814;44.686;10.842;2023-05-07T03:15:27;29.65;;;24.52;;
23290;SDS011;11814;44.686;10.842;2023-05-07T03:17:53;27.27;;;22.50;;
23290;SDS011;11814;44.686;10.842;2023-05-07T03:20:19;28.75;;;23.63;;
23290;SDS011;11814;44.686;10.842;2023-05-07T03:22:45;31.48;;;25.50;;
23290;SDS011;11814;44.686;10.842;2023-05-07T03:25:11;29.85;;;25.65;;
23290;SDS011;11814;44.686;10.842;2023-05-07T03:27:37;30.65;;;25.67;;
23290;SDS011;11814;44.686;10.842;2023-05-07T03:30:03;32.75;;;24.85;;
23290;SDS011;11814;44.686;10.842;2023-05-07T03:32:29;31.75;;;25.58;;
23290;SDS011;11814;44.686;10.842;2023-05-07T03:34:55;30.30;;;26.45;;
23290;SDS011;11814;44.686;10.842;2023-05-07T03:37:20;35.30;;;29.15;;
23290;SDS011;11814;44.686;10.842;2023-05-07T03:39:46;34.00;;;28.70;;
23290;SDS011;11814;44.686;10.842;2023-05-07T03:42:12;37.25;;;28.85;;
23290;SDS011;11814;44.686;10.842;2023-05-07T03:44:38;32.08;;;28.58;;
23290;SDS011;11814;44.686;10.842;2023-05-07T03:47:04;33.22;;;29.42;;
23290;SDS011;11814;44.686;10.842;2023-05-07T03:49:29;33.15;;;28.73;;
23290;SDS011;11814;44.686;10.842;2023-05-07T03:51:55;36.85;;;31.08;;
23290;SDS011;11814;44.686;10.842;2023-05-07T03:54:21;35.97;;;29.35;;
23290;SDS011;11814;44.686;10.842;2023-05-07T03:56:47;33.70;;;28.65;;
23290;SDS011;11814;44.686;10.842;2023-05-07T03:59:13;34.78;;;28.27;;
23290;SDS011;11814;44.686;10.842;2023-05-07T04:01:39;29.65;;;26.55;;
23290;SDS011;11814;44.686;10.842;2023-05-07T04:04:05;31.50;;;27.27;;
23290;SDS011;11814;44.686;10.842;2023-05-07T04:06:30;32.00;;;27.90;;
23290;SDS011;11814;44.686;10.842;2023-05-07T04:08:56;32.67;;;27.17;;
23290;SDS011;11814;44.686;10.842;2023-05-07T04:11:22;31.45;;;27.70;;
23290;SDS011;11814;44.686;10.842;2023-05-07T04:13:48;33.80;;;28.45;;
23290;SDS011;11814;44.686;10.842;2023-05-07T04:16:14;31.05;;;26.90;;
23290;SDS011;11814;44.686;10.842;2023-05-07T04:18:40;34.03;;;28.00;;
23290;SDS011;11814;44.686;10.842;2023-05-07T04:21:13;33.30;;;29.63;;
23290;SDS011;11814;44.686;10.842;2023-05-07T04:23:46;34.25;;;29.70;;
23290;SDS011;11814;44.686;10.842;2023-05-07T04:26:13;35.42;;;28.05;;
23290;SDS011;11814;44.686;10.842;2023-05-07T04:28:39;37.22;;;31.77;;
23290;SDS011;11814;44.686;10.842;2023-05-07T04:31:05;35.50;;;31.15;;
23290;SDS011;11814;44.686;10.842;2023-05-07T04:33:31;37.20;;;32.13;;
23290;SDS011;11814;44.686;10.842;2023-05-07T04:35:58;41.03;;;32.40;;
23290;SDS011;11814;44.686;10.842;2023-05-07T04:38:28;37.08;;;32.25;;
23290;SDS011;11814;44.686;10.842;2023-05-07T04:40:55;46.45;;;33.97;;
23290;SDS011;11814;44.686;10.842;2023-05-07T04:43:22;40.30;;;32.33;;
23290;SDS011;11814;44.686;10.842;2023-05-07T04:45:49;40.45;;;33.58;;
23290;SDS011;11814;44.686;10.842;2023-05-07T04:48:17;38.25;;;32.70;;
23290;SDS011;11814;44.686;10.842;2023-05-07T04:50:51;35.17;;;30.95;;
23290;SDS011;11814;44.686;10.842;2023-05-07T04:53:17;35.03;;;30.35;;
23290;SDS011;11814;44.686;10.842;2023-05-07T04:55:43;37.30;;;31.27;;
23290;SDS011;11814;44.686;10.842;2023-05-07T04:58:10;37.92;;;29.60;;
23290;SDS011;11814;44.686;10.842;2023-05-07T05:00:36;40.75;;;31.73;;
23290;SDS011;11814;44.686;10.842;2023-05-07T05:03:03;38.95;;;31.48;;
23290;SDS011;11814;44.686;10.842;2023-05-07T05:05:30;36.97;;;29.98;;
23290;SDS011;11814;44.686;10.842;2023-05-07T05:07:55;42.33;;;31.92;;
23290;SDS011;11814;44.686;10.842;2023-05-07T05:10:21;34.53;;;30.17;;
23290;SDS011;11814;44.686;10.842;2023-05-07T05:12:47;41.92;;;31.38;;
23290;SDS011;11814;44.686;10.842;2023-05-07T05:15:13;36.33;;;31.13;;
23290;SDS011;11814;44.686;10.842;2023-05-07T05:17:39;35.33;;;30.98;;
23290;SDS011;11814;44.686;10.842;2023-05-07T05:20:05;39.45;;;31.92;;
23290;SDS011;11814;44.686;10.842;2023-05-07T05:22:31;42.20;;;31.75;;
23290;SDS011;11814;44.686;10.842;2023-05-07T05:24:58;36.53;;;29.95;;
23290;SDS011;11814;44.686;10.842;2023-05-07T05:27:23;37.28;;;29.88;;
23290;SDS011;11814;44.686;10.842;2023-05-07T05:29:49;33.85;;;28.23;;
23290;SDS011;11814;44.686;10.842;2023-05-07T05:32:15;33.88;;;29.35;;
23290;SDS011;11814;44.686;10.842;2023-05-07T05:34:40;33.47;;;27.75;;
23290;SDS011;11814;44.686;10.842;2023-05-07T05:37:06;32.95;;;29.25;;
23290;SDS011;11814;44.686;10.842;2023-05-07T05:39:32;34.90;;;26.67;;
23290;SDS011;11814;44.686;10.842;2023-05-07T05:41:57;30.42;;;26.60;;
23290;SDS011;11814;44.686;10.842;2023-05-07T05:44:23;30.80;;;25.98;;
23290;SDS011;11814;44.686;10.842;2023-05-07T05:46:50;29.02;;;22.75;;
23290;SDS011;11814;44.686;10.842;2023-05-07T05:49:16;23.58;;;19.80;;
23290;SDS011;11814;44.686;10.842;2023-05-07T05:51:41;24.73;;;19.20;;
23290;SDS011;11814;44.686;10.842;2023-05-07T05:54:08;21.67;;;19.10;;
23290;SDS011;11814;44.686;10.842;2023-05-07T05:56:33;22.25;;;18.25;;
23290;SDS011;11814;44.686;10.842;2023-05-07T05:58:59;20.35;;;17.40;;
23290;SDS011;11814;44.686;10.842;2023-05-07T06:01:25;19.55;;;16.90;;
23290;SDS011;11814;44.686;10.842;2023-05-07T06:03:51;18.92;;;16.05;;
23290;SDS011;11814;44.686;10.842;2023-05-07T06:06:17;17.40;;;15.60;;
23290;SDS011;11814;44.686;10.842;2023-05-07T06:08:43;20.15;;;16.10;;
23290;SDS011;11814;44.686;10.842;2023-05-07T06:11:08;17.40;;;15.50;;
23290;SDS011;11814;44.686;10.842;2023-05-07T06:13:34;16.95;;;15.15;;
23290;SDS011;11814;44.686;10.842;2023-05-07T06:16:00;15.10;;;13.52;;
23290;SDS011;11814;44.686;10.842;2023-05-07T06:18:26;16.63;;;14.35;;
23290;SDS011;11814;44.686;10.842;2023-05-07T06:20:51;15.23;;;12.63;;
23290;SDS011;11814;44.686;10.842;2023-05-07T06:23:18;14.57;;;12.95;;
23290;SDS011;11814;44.686;10.842;2023-05-07T06:25:50;15.32;;;12.05;;
23290;SDS011;11814;44.686;10.842;2023-05-07T06:28:16;13.88;;;11.95;;
23290;SDS011;11814;44.686;10.842;2023-05-07T06:30:42;13.25;;;11.13;;
23290;SDS011;11814;44.686;10.842;2023-05-07T06:33:08;13.38;;;11.02;;
23290;SDS011;11814;44.686;10.842;2023-05-07T06:35:33;13.65;;;11.90;;
23290;SDS011;11814;44.686;10.842;2023-05-07T06:37:59;13.55;;;10.80;;
23290;SDS011;11814;44.686;10.842;2023-05-07T06:40:25;14.90;;;12.02;;
23290;SDS011;11814;44.686;10.842;2023-05-07T06:42:51;13.23;;;10.70;;
23290;SDS011;11814;44.686;10.842;2023-05-07T06:45:17;18.35;;;11.65;;
23290;SDS011;11814;44.686;10.842;2023-05-07T06:47:44;14.65;;;10.80;;
23290;SDS011;11814;44.686;10.842;2023-05-07T06:50:10;14.52;;;12.18;;
23290;SDS011;11814;44.686;10.842;2023-05-07T06:52:36;15.50;;;13.13;;
23290;SDS011;11814;44.686;10.842;2023-05-07T06:55:01;26.45;;;17.60;;
23290;SDS011;11814;44.686;10.842;2023-05-07T06:57:27;31.05;;;21.65;;
23290;SDS011;11814;44.686;10.842;2023-05-07T06:59:53;27.73;;;21.38;;
23290;SDS011;11814;44.686;10.842;2023-05-07T07:02:18;19.45;;;17.27;;
23290;SDS011;11814;44.686;10.842;2023-05-07T07:04:44;20.73;;;18.50;;
23290;SDS011;11814;44.686;10.842;2023-05-07T07:07:10;31.30;;;20.88;;
23290;SDS011;11814;44.686;10.842;2023-05-07T07:09:36;26.90;;;21.30;;
23290;SDS011;11814;44.686;10.842;2023-05-07T07:12:02;24.92;;;21.35;;
23290;SDS011;11814;44.686;10.842;2023-05-07T07:14:27;27.80;;;22.15;;
23290;SDS011;11814;44.686;10.842;2023-05-07T07:16:53;28.73;;;22.08;;
23290;SDS011;11814;44.686;10.842;2023-05-07T07:19:19;25.25;;;21.90;;
23290;SDS011;11814;44.686;10.842;2023-05-07T07:21:45;27.20;;;23.08;;
23290;SDS011;11814;44.686;10.842;2023-05-07T07:24:11;27.88;;;24.90;;
23290;SDS011;11814;44.686;10.842;2023-05-07T07:26:38;30.05;;;23.08;;
23290;SDS011;11814;44.686;10.842;2023-05-07T07:29:05;28.73;;;23.00;;
23290;SDS011;11814;44.686;10.842;2023-05-07T07:31:31;26.67;;;22.30;;
23290;SDS011;11814;44.686;10.842;2023-05-07T07:33:57;26.65;;;23.15;;
23290;SDS011;11814;44.686;10.842;2023-05-07T07:36:23;25.70;;;22.75;;
23290;SDS011;11814;44.686;10.842;2023-05-07T07:38:49;25.38;;;22.00;;
23290;SDS011;11814;44.686;10.842;2023-05-07T07:41:14;23.98;;;20.77;;
23290;SDS011;11814;44.686;10.842;2023-05-07T07:43:40;23.52;;;19.90;;
23290;SDS011;11814;44.686;10.842;2023-05-07T07:46:06;23.30;;;20.83;;
23290;SDS011;11814;44.686;10.842;2023-05-07T07:48:31;27.20;;;22.13;;
23290;SDS011;11814;44.686;10.842;2023-05-07T07:50:58;24.52;;;21.92;;
23290;SDS011;11814;44.686;10.842;2023-05-07T07:53:24;24.10;;;21.48;;
23290;SDS011;11814;44.686;10.842;2023-05-07T07:55:50;25.65;;;22.88;;
23290;SDS011;11814;44.686;10.842;2023-05-07T07:58:16;25.70;;;22.00;;
23290;SDS011;11814;44.686;10.842;2023-05-07T08:00:41;29.33;;;22.55;;
23290;SDS011;11814;44.686;10.842;2023-05-07T08:03:10;27.58;;;22.60;;
23290;SDS011;11814;44.686;10.842;2023-05-07T08:05:36;25.70;;;22.95;;
23290;SDS011;11814;44.686;10.842;2023-05-07T08:08:03;26.20;;;23.33;;
23290;SDS011;11814;44.686;10.842;2023-05-07T08:10:29;24.55;;;20.92;;
23290;SDS011;11814;44.686;10.842;2023-05-07T08:12:58;27.45;;;23.65;;
23290;SDS011;11814;44.686;10.842;2023-05-07T08:15:24;24.98;;;22.08;;
23290;SDS011;11814;44.686;10.842;2023-05-07T08:17:50;31.15;;;26.75;;
23290;SDS011;11814;44.686;10.842;2023-05-07T08:20:16;27.63;;;23.30;;
23290;SDS011;11814;44.686;10.842;2023-05-07T08:22:41;26.30;;;22.77;;
23290;SDS011;11814;44.686;10.842;2023-05-07T08:25:07;24.98;;;22.33;;
23290;SDS011;11814;44.686;10.842;2023-05-07T08:27:33;29.38;;;23.58;;
23290;SDS011;11814;44.686;10.842;2023-05-07T08:29:59;24.10;;;21.63;;
23290;SDS011;11814;44.686;10.842;2023-05-07T08:32:25;27.20;;;22.58;;
23290;SDS011;11814;44.686;10.842;2023-05-07T08:34:51;24.55;;;22.05;;
23290;SDS011;11814;44.686;10.842;2023-05-07T08:37:16;27.60;;;22.50;;
23290;SDS011;11814;44.686;10.842;2023-05-07T08:39:42;29.42;;;23.13;;
23290;SDS011;11814;44.686;10.842;2023-05-07T08:42:07;24.90;;;22.17;;
23290;SDS011;11814;44.686;10.842;2023-05-07T08:44:36;26.67;;;22.25;;
23290;SDS011;11814;44.686;10.842;2023-05-07T08:47:06;27.85;;;23.13;;
23290;SDS011;11814;44.686;10.842;2023-05-07T08:49:33;26.65;;;23.75;;
23290;SDS011;11814;44.686;10.842;2023-05-07T08:51:59;25.92;;;22.38;;
23290;SDS011;11814;44.686;10.842;2023-05-07T08:54:25;25.30;;;22.60;;
23290;SDS011;11814;44.686;10.842;2023-05-07T08:56:52;24.50;;;21.00;;
23290;SDS011;11814;44.686;10.842;2023-05-07T08:59:18;24.80;;;21.67;;
23290;SDS011;11814;44.686;10.842;2023-05-07T09:01:44;23.77;;;21.38;;
23290;SDS011;11814;44.686;10.842;2023-05-07T09:04:10;29.10;;;21.90;;
23290;SDS011;11814;44.686;10.842;2023-05-07T09:06:35;26.92;;;20.83;;
23290;SDS011;11814;44.686;10.842;2023-05-07T09:09:03;24.85;;;21.70;;
23290;SDS011;11814;44.686;10.842;2023-05-07T09:11:30;24.80;;;21.13;;
23290;SDS011;11814;44.686;10.842;2023-05-07T09:13:56;22.48;;;19.50;;
23290;SDS011;11814;44.686;10.842;2023-05-07T09:16:26;23.33;;;20.88;;
23290;SDS011;11814;44.686;10.842;2023-05-07T09:18:53;25.05;;;19.95;;
23290;SDS011;11814;44.686;10.842;2023-05-07T09:21:20;25.02;;;21.85;;
23290;SDS011;11814;44.686;10.842;2023-05-07T09:23:50;21.58;;;19.23;;
23290;SDS011;11814;44.686;10.842;2023-05-07T09:26:16;21.35;;;18.80;;
23290;SDS011;11814;44.686;10.842;2023-05-07T09:28:42;21.63;;;17.90;;
23290;SDS011;11814;44.686;10.842;2023-05-07T09:31:09;22.15;;;17.65;;
23290;SDS011;11814;44.686;10.842;2023-05-07T09:33:36;19.02;;;16.35;;
23290;SDS011;11814;44.686;10.842;2023-05-07T09:36:06;20.10;;;17.95;;
23290;SDS011;11814;44.686;10.842;2023-05-07T09:38:33;18.55;;;16.15;;
23290;SDS011;11814;44.686;10.842;2023-05-07T09:41:07;17.95;;;13.70;;
23290;SDS011;11814;44.686;10.842;2023-05-07T09:43:35;17.42;;;13.52;;
23290;SDS011;11814;44.686;10.842;2023-05-07T09:46:02;16.40;;;14.27;;
23290;SDS011;11814;44.686;10.842;2023-05-07T09:48:31;19.80;;;15.95;;
23290;SDS011;11814;44.686;10.842;2023-05-07T09:51:01;20.27;;;15.93;;
23290;SDS011;11814;44.686;10.842;2023-05-07T09:53:29;18.02;;;14.63;;
23290;SDS011;11814;44.686;10.842;2023-05-07T09:55:56;17.00;;;15.10;;
23290;SDS011;11814;44.686;10.842;2023-05-07T09:58:23;14.27;;;12.20;;
23290;SDS011;11814;44.686;10.842;2023-05-07T10:00:51;12.20;;;10.98;;
23290;SDS011;11814;44.686;10.842;2023-05-07T10:03:18;15.50;;;11.20;;
23290;SDS011;11814;44.686;10.842;2023-05-07T10:05:45;13.48;;;11.48;;
23290;SDS011;11814;44.686;10.842;2023-05-07T10:08:12;15.15;;;10.90;;
23290;SDS011;11814;44.686;10.842;2023-05-07T10:10:38;10.88;;;9.57;;
23290;SDS011;11814;44.686;10.842;2023-05-07T10:13:05;11.65;;;9.18;;
23290;SDS011;11814;44.686;10.842;2023-05-07T10:15:35;10.65;;;8.48;;
23290;SDS011;11814;44.686;10.842;2023-05-07T10:18:02;11.00;;;8.57;;
23290;SDS011;11814;44.686;10.842;2023-05-07T10:20:31;14.25;;;8.05;;
23290;SDS011;11814;44.686;10.842;2023-05-07T10:22:58;10.23;;;7.53;;
23290;SDS011;11814;44.686;10.842;2023-05-07T10:25:30;7.93;;;5.47;;
23290;SDS011;11814;44.686;10.842;2023-05-07T10:27:59;10.38;;;6.85;;
23290;SDS011;11814;44.686;10.842;2023-05-07T10:33:03;6.20;;;4.40;;
23290;SDS011;11814;44.686;10.842;2023-05-07T10:35:37;5.30;;;4.03;;
23290;SDS011;11814;44.686;10.842;2023-05-07T10:38:06;5.03;;;2.53;;
23290;SDS011;11814;44.686;10.842;2023-05-07T10:40:32;3.50;;;2.67;;
23290;SDS011;11814;44.686;10.842;2023-05-07T10:42:59;5.47;;;2.75;;
23290;SDS011;11814;44.686;10.842;2023-05-07T10:45:27;4.82;;;3.10;;
23290;SDS011;11814;44.686;10.842;2023-05-07T10:48:06;4.63;;;2.55;;
23290;SDS011;11814;44.686;10.842;2023-05-07T10:50:36;3.55;;;2.47;;
23290;SDS011;11814;44.686;10.842;2023-05-07T10:53:21;5.15;;;2.47;;
23290;SDS011;11814;44.686;10.842;2023-05-07T10:55:51;2.60;;;2.20;;
23290;SDS011;11814;44.686;10.842;2023-05-07T10:58:37;2.92;;;2.00;;
23290;SDS011;11814;44.686;10.842;2023-05-07T11:01:03;3.05;;;2.50;;
23290;SDS011;11814;44.686;10.842;2023-05-07T11:03:29;3.85;;;2.38;;
23290;SDS011;11814;44.686;10.842;2023-05-07T11:06:10;4.82;;;3.17;;
23290;SDS011;11814;44.686;10.842;2023-05-07T11:08:56;6.70;;;3.40;;
23290;SDS011;11814;44.686;10.842;2023-05-07T11:17:05;4.00;;;2.30;;
23290;SDS011;11814;44.686;10.842;2023-05-07T11:19:48;3.72;;;2.40;;
23290;SDS011;11814;44.686;10.842;2023-05-07T11:25:00;2.80;;;2.05;;
23290;SDS011;11814;44.686;10.842;2023-05-07T11:27:26;2.22;;;1.38;;
23290;SDS011;11814;44.686;10.842;2023-05-07T11:29:52;2.25;;;1.48;;
23290;SDS011;11814;44.686;10.842;2023-05-07T11:34:54;3.63;;;1.85;;
23290;SDS011;11814;44.686;10.842;2023-05-07T11:37:20;3.13;;;2.42;;
23290;SDS011;11814;44.686;10.842;2023-05-07T11:39:47;4.13;;;3.42;;
23290;SDS011;11814;44.686;10.842;2023-05-07T11:44:53;5.50;;;3.60;;
23290;SDS011;11814;44.686;10.842;2023-05-07T11:47:18;5.55;;;3.13;;
23290;SDS011;11814;44.686;10.842;2023-05-07T11:49:48;4.40;;;2.47;;
23290;SDS011;11814;44.686;10.842;2023-05-07T11:52:15;5.22;;;1.85;;
23290;SDS011;11814;44.686;10.842;2023-05-07T11:54:43;3.75;;;1.95;;
23290;SDS011;11814;44.686;10.842;2023-05-07T11:57:18;3.35;;;2.95;;
23290;SDS011;11814;44.686;10.842;2023-05-07T11:59:44;4.10;;;3.25;;
23290;SDS011;11814;44.686;10.842;2023-05-07T12:02:10;4.13;;;3.28;;
23290;SDS011;11814;44.686;10.842;2023-05-07T12:04:38;5.50;;;3.42;;
23290;SDS011;11814;44.686;10.842;2023-05-07T12:07:03;8.60;;;4.28;;
23290;SDS011;11814;44.686;10.842;2023-05-07T12:09:31;5.70;;;3.50;;
23290;SDS011;11814;44.686;10.842;2023-05-07T12:12:02;6.53;;;4.35;;
23290;SDS011;11814;44.686;10.842;2023-05-07T12:14:29;5.85;;;5.22;;
23290;SDS011;11814;44.686;10.842;2023-05-07T12:16:55;7.47;;;4.40;;
23290;SDS011;11814;44.686;10.842;2023-05-07T12:19:21;5.47;;;4.07;;
23290;SDS011;11814;44.686;10.842;2023-05-07T12:21:47;4.97;;;3.80;;
23290;SDS011;11814;44.686;10.842;2023-05-07T12:24:14;5.43;;;3.90;;
23290;SDS011;11814;44.686;10.842;2023-05-07T12:26:40;5.63;;;4.18;;
23290;SDS011;11814;44.686;10.842;2023-05-07T12:29:06;6.60;;;4.05;;
23290;SDS011;11814;44.686;10.842;2023-05-07T12:31:32;4.47;;;3.80;;
23290;SDS011;11814;44.686;10.842;2023-05-07T12:33:58;7.18;;;3.42;;
23290;SDS011;11814;44.686;10.842;2023-05-07T12:36:24;4.63;;;3.38;;
23290;SDS011;11814;44.686;10.842;2023-05-07T12:38:50;5.10;;;3.40;;
23290;SDS011;11814;44.686;10.842;2023-05-07T12:41:16;5.80;;;3.13;;
23290;SDS011;11814;44.686;10.842;2023-05-07T12:43:46;5.03;;;3.00;;
23290;SDS011;11814;44.686;10.842;2023-05-07T12:46:12;3.42;;;2.58;;
23290;SDS011;11814;44.686;10.842;2023-05-07T12:48:44;7.78;;;2.83;;
23290;SDS011;11814;44.686;10.842;2023-05-07T12:51:11;6.18;;;3.10;;
23290;SDS011;11814;44.686;10.842;2023-05-07T12:53:41;4.45;;;2.58;;
23290;SDS011;11814;44.686;10.842;2023-05-07T12:56:08;4.90;;;2.70;;
23290;SDS011;11814;44.686;10.842;2023-05-07T12:58:34;3.40;;;2.60;;
23290;SDS011;11814;44.686;10.842;2023-05-07T13:01:07;4.95;;;2.50;;
23290;SDS011;11814;44.686;10.842;2023-05-07T13:03:35;3.45;;;2.85;;
23290;SDS011;11814;44.686;10.842;2023-05-07T13:06:02;7.20;;;2.83;;
23290;SDS011;11814;44.686;10.842;2023-05-07T13:08:38;7.00;;;3.10;;
23290;SDS011;11814;44.686;10.842;2023-05-07T13:11:07;4.70;;;2.50;;
23290;SDS011;11814;44.686;10.842;2023-05-07T13:13:34;4.10;;;2.33;;
23290;SDS011;11814;44.686;10.842;2023-05-07T13:16:01;2.35;;;1.90;;
23290;SDS011;11814;44.686;10.842;2023-05-07T13:18:29;3.90;;;1.98;;
23290;SDS011;11814;44.686;10.842;2023-05-07T13:20:55;4.85;;;2.42;;
23290;SDS011;11814;44.686;10.842;2023-05-07T13:23:21;3.05;;;2.13;;
23290;SDS011;11814;44.686;10.842;2023-05-07T13:25:47;3.85;;;2.10;;
23290;SDS011;11814;44.686;10.842;2023-05-07T13:28:13;4.55;;;2.30;;
23290;SDS011;11814;44.686;10.842;2023-05-07T13:30:39;3.95;;;2.08;;
23290;SDS011;11814;44.686;10.842;2023-05-07T13:33:08;5.53;;;2.10;;
23290;SDS011;11814;44.686;10.842;2023-05-07T13:35:34;7.90;;;2.38;;
23290;SDS011;11814;44.686;10.842;2023-05-07T13:38:00;2.50;;;1.92;;
23290;SDS011;11814;44.686;10.842;2023-05-07T13:40:25;4.45;;;2.50;;
23290;SDS011;11814;44.686;10.842;2023-05-07T13:42:51;5.05;;;2.38;;
23290;SDS011;11814;44.686;10.842;2023-05-07T13:45:18;2.78;;;2.40;;
23290;SDS011;11814;44.686;10.842;2023-05-07T13:47:44;3.25;;;2.38;;
23290;SDS011;11814;44.686;10.842;2023-05-07T13:50:11;3.75;;;2.78;;
23290;SDS011;11814;44.686;10.842;2023-05-07T13:52:41;3.53;;;2.65;;
23290;SDS011;11814;44.686;10.842;2023-05-07T13:55:08;4.18;;;2.90;;
23290;SDS011;11814;44.686;10.842;2023-05-07T13:57:36;3.10;;;2.53;;
23290;SDS011;11814;44.686;10.842;2023-05-07T14:00:02;4.25;;;2.90;;
23290;SDS011;11814;44.686;10.842;2023-05-07T14:02:30;2.92;;;2.70;;
23290;SDS011;11814;44.686;10.842;2023-05-07T14:04:56;5.00;;;2.60;;
23290;SDS011;11814;44.686;10.842;2023-05-07T14:07:22;3.95;;;2.42;;
23290;SDS011;11814;44.686;10.842;2023-05-07T14:09:47;6.65;;;2.78;;
23290;SDS011;11814;44.686;10.842;2023-05-07T14:12:13;4.88;;;2.67;;
23290;SDS011;11814;44.686;10.842;2023-05-07T14:14:39;3.13;;;2.30;;
23290;SDS011;11814;44.686;10.842;2023-05-07T14:17:04;2.97;;;2.40;;
23290;SDS011;11814;44.686;10.842;2023-05-07T14:19:30;6.78;;;2.50;;
23290;SDS011;11814;44.686;10.842;2023-05-07T14:21:56;2.97;;;2.20;;
23290;SDS011;11814;44.686;10.842;2023-05-07T14:24:23;2.95;;;2.05;;
23290;SDS011;11814;44.686;10.842;2023-05-07T14:26:49;2.75;;;2.30;;
23290;SDS011;11814;44.686;10.842;2023-05-07T14:29:16;4.75;;;2.42;;